Time;durP1;ratioP1;P1;durP2;ratioP2;P2;SDS_P1;SDS_P2;PMS_P1;PMS_P2;Temp;Humidity;BMP_temperature;BMP_pressure;BME280_temperature;BME280_humidity;BME280_pressure;Samples;Min_cycle;Max_cycle;Signal;HPM_P1;HPM_P2
2022/04/24 00:02:04;;;;;;;11.70;9.52;;;;;;;;;;5070802;28;20810;-77
2022/04/24 00:04:32;;;;;;;10.00;9.10;;;;;;;;;;5069044;28;20687;-78
2022/04/24 00:07:00;;;;;;;11.27;9.88;;;;;;;;;;5070950;28;20032;-77
2022/04/24 00:09:28;;;;;;;10.35;9.35;;;;;;;;;;5067421;28;20044;-77
2022/04/24 00:11:57;;;;;;;11.40;10.30;;;;;;;;;;5066437;28;20048;-78
2022/04/24 00:14:25;;;;;;;9.45;8.55;;;;;;;;;;5065659;28;20039;-77
2022/04/24 00:16:52;;;;;;;10.75;9.65;;;;;;;;;;5067885;28;20036;-78
2022/04/24 00:19:20;;;;;;;11.07;9.98;;;;;;;;;;5066624;28;20079;-77
2022/04/24 00:21:47;;;;;;;10.50;9.48;;;;;;;;;;5053205;28;20143;-78
2022/04/24 00:24:15;;;;;;;11.18;10.07;;;;;;;;;;5069804;28;20044;-78
2022/04/24 00:26:42;;;;;;;10.63;9.63;;;;;;;;;;5067004;28;20056;-77
2022/04/24 00:29:10;;;;;;;10.30;9.30;;;;;;;;;;5066216;28;20060;-77
2022/04/24 00:31:37;;;;;;;10.25;9.25;;;;;;;;;;5070383;28;20119;-78
2022/04/24 00:34:05;;;;;;;10.10;9.10;;;;;;;;;;5073405;28;20118;-77
2022/04/24 00:36:32;;;;;;;10.93;9.82;;;;;;;;;;5067356;28;20098;-78
2022/04/24 00:38:59;;;;;;;10.57;9.48;;;;;;;;;;5064808;28;20131;-76
2022/04/24 00:41:27;;;;;;;8.93;8.13;;;;;;;;;;5073342;28;20042;-77
2022/04/24 00:43:55;;;;;;;9.82;8.80;;;;;;;;;;5075810;28;21208;-77
2022/04/24 00:46:46;;;;;;;10.13;9.13;;;;;;;;;;5076607;28;20119;-77
2022/04/24 00:49:13;;;;;;;11.20;10.15;;;;;;;;;;5080636;28;20542;-77
2022/04/24 00:51:43;;;;;;;10.93;9.43;;;;;;;;;;5077653;28;20044;-77
2022/04/24 00:54:11;;;;;;;10.85;9.75;;;;;;;;;;5078512;28;20061;-77
2022/04/24 00:56:39;;;;;;;10.50;9.45;;;;;;;;;;5079114;28;20075;-77
2022/04/24 00:59:08;;;;;;;10.85;9.77;;;;;;;;;;5074145;28;20086;-77
2022/04/24 01:01:36;;;;;;;12.38;10.90;;;;;;;;;;5075564;28;20764;-77
2022/04/24 01:04:05;;;;;;;11.77;10.68;;;;;;;;;;5082576;28;20044;-77
2022/04/24 01:06:33;;;;;;;10.38;9.38;;;;;;;;;;5080895;28;20120;-77
2022/04/24 01:09:17;;;;;;;10.85;9.75;;;;;;;;;;5078031;28;20474;-77
2022/04/24 01:11:55;;;;;;;10.88;9.75;;;;;;;;;;5076718;28;20048;-77
2022/04/24 01:14:25;;;;;;;12.18;11.00;;;;;;;;;;5072437;28;20624;-78
2022/04/24 01:16:52;;;;;;;15.02;13.57;;;;;;;;;;5075777;28;20044;-77
2022/04/24 01:19:20;;;;;;;11.35;10.25;;;;;;;;;;5077043;28;20397;-77
2022/04/24 01:21:49;;;;;;;12.40;11.13;;;;;;;;;;5078376;28;20074;-77
2022/04/24 01:24:17;;;;;;;10.32;9.32;;;;;;;;;;5072789;28;20040;-77
2022/04/24 01:26:45;;;;;;;11.13;10.02;;;;;;;;;;5078184;28;20044;-78
2022/04/24 01:29:14;;;;;;;10.75;9.75;;;;;;;;;;5077960;28;20508;-77
2022/04/24 01:31:44;;;;;;;10.73;9.70;;;;;;;;;;5087021;28;20040;-77
2022/04/24 01:34:12;;;;;;;10.65;9.65;;;;;;;;;;5090618;28;20044;-78
2022/04/24 01:36:39;;;;;;;9.85;8.90;;;;;;;;;;5074500;28;20518;-77
2022/04/24 01:39:07;;;;;;;9.57;8.60;;;;;;;;;;5076114;28;20058;-77
2022/04/24 01:41:35;;;;;;;10.52;9.52;;;;;;;;;;5075079;28;20064;-78
2022/04/24 01:44:03;;;;;;;10.07;9.13;;;;;;;;;;5077422;28;20113;-77
2022/04/24 01:46:30;;;;;;;9.55;8.50;;;;;;;;;;5073437;28;20098;-78
2022/04/24 01:48:58;;;;;;;9.30;8.38;;;;;;;;;;5075787;28;20530;-78
2022/04/24 01:51:25;;;;;;;9.98;9.00;;;;;;;;;;5072942;28;20036;-78
2022/04/24 01:53:53;;;;;;;8.98;8.07;;;;;;;;;;5075148;28;20315;-77
2022/04/24 01:56:20;;;;;;;9.40;8.50;;;;;;;;;;5076574;28;20047;-77
2022/04/24 01:58:48;;;;;;;9.50;8.57;;;;;;;;;;5070776;28;20044;-77
2022/04/24 02:01:15;;;;;;;9.38;8.48;;;;;;;;;;5083164;22;20052;-85
2022/04/24 02:03:43;;;;;;;9.32;8.07;;;;;;;;;;5061117;28;20055;-85
2022/04/24 02:06:12;;;;;;;9.60;8.70;;;;;;;;;;5064531;28;20144;-85
2022/04/24 02:08:40;;;;;;;9.20;8.38;;;;;;;;;;5079613;28;20036;-85
2022/04/24 02:11:08;;;;;;;10.13;9.07;;;;;;;;;;5065654;28;20062;-85
2022/04/24 02:13:36;;;;;;;9.05;8.15;;;;;;;;;;5084910;22;20068;-77
2022/04/24 02:16:03;;;;;;;10.32;9.35;;;;;;;;;;5058134;28;20078;-77
2022/04/24 02:18:31;;;;;;;10.50;9.60;;;;;;;;;;5054925;28;20045;-77
2022/04/24 02:20:59;;;;;;;9.82;8.93;;;;;;;;;;5053635;28;22857;-78
2022/04/24 02:23:27;;;;;;;10.32;9.20;;;;;;;;;;5056702;28;20040;-77
2022/04/24 02:25:55;;;;;;;10.85;9.35;;;;;;;;;;5055840;28;20048;-78
2022/04/24 02:28:22;;;;;;;10.88;9.05;;;;;;;;;;5076778;28;20384;-78
2022/04/24 02:30:50;;;;;;;10.95;9.85;;;;;;;;;;5066160;28;20499;-78
2022/04/24 02:33:17;;;;;;;10.93;9.93;;;;;;;;;;5068848;28;20049;-78
2022/04/24 02:35:45;;;;;;;9.07;8.27;;;;;;;;;;5059032;28;20152;-77
2022/04/24 02:38:12;;;;;;;9.93;8.93;;;;;;;;;;5056430;28;20053;-77
2022/04/24 02:40:40;;;;;;;9.80;8.90;;;;;;;;;;5058536;28;20076;-77
2022/04/24 02:43:07;;;;;;;9.38;8.57;;;;;;;;;;5056606;28;20067;-77
2022/04/24 02:45:35;;;;;;;10.63;9.57;;;;;;;;;;5054897;28;21517;-77
2022/04/24 02:48:03;;;;;;;10.07;9.15;;;;;;;;;;5056230;28;20037;-77
2022/04/24 02:50:30;;;;;;;10.35;8.73;;;;;;;;;;5057397;28;20479;-77
2022/04/24 02:52:58;;;;;;;8.98;8.13;;;;;;;;;;5059666;28;20091;-77
2022/04/24 02:55:25;;;;;;;8.13;7.40;;;;;;;;;;5057884;28;20050;-77
2022/04/24 02:57:54;;;;;;;9.00;8.20;;;;;;;;;;5059575;28;20048;-78
2022/04/24 03:00:39;;;;;;;8.45;7.57;;;;;;;;;;5061342;28;20129;-77
2022/04/24 03:03:07;;;;;;;7.53;6.93;;;;;;;;;;5062495;28;20036;-78
2022/04/24 03:05:35;;;;;;;8.75;7.90;;;;;;;;;;5043451;28;20854;-78
2022/04/24 03:08:03;;;;;;;8.15;7.35;;;;;;;;;;5066399;28;20299;-78
2022/04/24 03:10:30;;;;;;;8.60;7.80;;;;;;;;;;5047217;28;20074;-78
2022/04/24 03:12:57;;;;;;;7.65;6.85;;;;;;;;;;5068446;28;20037;-78
2022/04/24 03:15:25;;;;;;;8.65;7.65;;;;;;;;;;5053108;28;20068;-77
2022/04/24 03:17:54;;;;;;;9.23;8.27;;;;;;;;;;5053566;28;20033;-78
2022/04/24 03:20:25;;;;;;;8.43;7.68;;;;;;;;;;5053434;28;20128;-78
2022/04/24 03:22:53;;;;;;;8.57;7.85;;;;;;;;;;5055048;28;20037;-79
2022/04/24 03:25:20;;;;;;;8.25;7.45;;;;;;;;;;5038552;28;20574;-77
2022/04/24 03:27:47;;;;;;;9.05;8.15;;;;;;;;;;5055449;28;20304;-77
2022/04/24 03:30:15;;;;;;;9.05;7.68;;;;;;;;;;5020783;28;20044;-77
2022/04/24 03:32:42;;;;;;;8.10;7.35;;;;;;;;;;5052273;28;20037;-77
2022/04/24 03:35:10;;;;;;;7.85;7.05;;;;;;;;;;5053478;28;20068;-78
2022/04/24 03:37:38;;;;;;;7.07;6.47;;;;;;;;;;5057221;28;20078;-78
2022/04/24 03:40:06;;;;;;;6.43;5.82;;;;;;;;;;5037346;28;20052;-78
2022/04/24 03:42:33;;;;;;;6.90;6.30;;;;;;;;;;5056752;28;20040;-78
2022/04/24 03:45:01;;;;;;;6.78;6.13;;;;;;;;;;5053830;28;20094;-77
2022/04/24 03:47:29;;;;;;;7.05;6.45;;;;;;;;;;5054245;28;20044;-78
2022/04/24 03:49:56;;;;;;;6.80;6.20;;;;;;;;;;5058883;28;20531;-77
2022/04/24 03:52:24;;;;;;;7.07;6.38;;;;;;;;;;5040025;28;20041;-78
2022/04/24 03:54:51;;;;;;;6.03;5.53;;;;;;;;;;5056516;28;20080;-78
2022/04/24 03:57:19;;;;;;;6.80;6.13;;;;;;;;;;5041990;28;20056;-78
2022/04/24 03:59:46;;;;;;;6.30;5.70;;;;;;;;;;5059858;28;20070;-78
2022/04/24 04:02:13;;;;;;;8.27;7.55;;;;;;;;;;5031971;28;20159;-78
2022/04/24 04:04:41;;;;;;;7.68;6.97;;;;;;;;;;5064410;28;20032;-78
2022/04/24 04:07:09;;;;;;;8.52;7.20;;;;;;;;;;5053489;28;20041;-78
2022/04/24 04:09:37;;;;;;;7.38;6.78;;;;;;;;;;5040749;28;20033;-77
2022/04/24 04:12:06;;;;;;;7.22;6.55;;;;;;;;;;5054629;28;20581;-77
2022/04/24 04:14:33;;;;;;;7.07;6.38;;;;;;;;;;5039926;28;20059;-78
2022/04/24 04:17:01;;;;;;;6.53;6.03;;;;;;;;;;5038556;28;20117;-77
2022/04/24 04:19:32;;;;;;;6.82;6.13;;;;;;;;;;5054496;28;20081;-78
2022/04/24 04:21:59;;;;;;;7.38;6.78;;;;;;;;;;5055265;28;20067;-77
2022/04/24 04:24:27;;;;;;;7.30;6.70;;;;;;;;;;5052459;28;20420;-77
2022/04/24 04:26:54;;;;;;;7.30;6.70;;;;;;;;;;5055381;28;20049;-78
2022/04/24 04:29:22;;;;;;;7.32;6.65;;;;;;;;;;5058989;28;20045;-78
2022/04/24 04:31:49;;;;;;;6.63;6.00;;;;;;;;;;5058374;28;20407;-78
2022/04/24 04:34:16;;;;;;;8.13;7.22;;;;;;;;;;5051752;28;20585;-77
2022/04/24 04:36:44;;;;;;;8.25;6.68;;;;;;;;;;5048181;28;20110;-78
2022/04/24 04:39:11;;;;;;;7.50;6.82;;;;;;;;;;5050103;28;20044;-78
2022/04/24 04:41:40;;;;;;;7.40;6.80;;;;;;;;;;5050931;28;20075;-78
2022/04/24 04:44:07;;;;;;;7.38;6.68;;;;;;;;;;5044244;28;20075;-78
2022/04/24 04:46:34;;;;;;;7.57;6.97;;;;;;;;;;5053600;28;20044;-77
2022/04/24 04:49:02;;;;;;;7.35;6.75;;;;;;;;;;5055520;28;20041;-77
2022/04/24 04:51:29;;;;;;;6.60;5.95;;;;;;;;;;5055315;28;20044;-77
2022/04/24 04:53:57;;;;;;;6.00;5.50;;;;;;;;;;5058945;28;20063;-78
2022/04/24 04:56:24;;;;;;;5.30;4.90;;;;;;;;;;5059147;28;20155;-78
2022/04/24 04:58:52;;;;;;;5.60;5.10;;;;;;;;;;5042221;28;20053;-78
2022/04/24 05:01:19;;;;;;;6.20;5.60;;;;;;;;;;5059577;28;20049;-77
2022/04/24 05:03:47;;;;;;;5.40;5.00;;;;;;;;;;5055794;28;20149;-78
2022/04/24 05:06:14;;;;;;;6.03;5.53;;;;;;;;;;5068186;28;20106;-77
2022/04/24 05:08:41;;;;;;;5.45;5.05;;;;;;;;;;5062792;28;20459;-78
2022/04/24 05:11:09;;;;;;;6.38;5.78;;;;;;;;;;5065395;28;20421;-78
2022/04/24 05:13:36;;;;;;;6.28;5.78;;;;;;;;;;5061471;28;20044;-78
2022/04/24 05:16:03;;;;;;;7.18;5.90;;;;;;;;;;5064026;28;20033;-78
2022/04/24 05:18:31;;;;;;;5.97;5.38;;;;;;;;;;5061733;28;20037;-78
2022/04/24 05:20:59;;;;;;;7.40;6.68;;;;;;;;;;5065329;28;20039;-78
2022/04/24 05:23:27;;;;;;;7.20;6.50;;;;;;;;;;5049674;28;20037;-78
2022/04/24 05:25:54;;;;;;;6.70;6.10;;;;;;;;;;5038514;28;20050;-77
2022/04/24 05:28:21;;;;;;;6.30;5.70;;;;;;;;;;5066795;28;20725;-78
2022/04/24 05:30:49;;;;;;;6.55;6.05;;;;;;;;;;5050351;28;20044;-77
2022/04/24 05:33:17;;;;;;;6.78;6.25;;;;;;;;;;5071080;28;20040;-78
2022/04/24 05:35:45;;;;;;;6.68;6.07;;;;;;;;;;5070778;28;20439;-78
2022/04/24 05:38:13;;;;;;;6.25;5.75;;;;;;;;;;5051757;28;20044;-77
2022/04/24 05:40:40;;;;;;;6.43;5.93;;;;;;;;;;5050931;28;20601;-77
2022/04/24 05:43:08;;;;;;;6.93;6.22;;;;;;;;;;5036781;28;20488;-77
2022/04/24 05:45:36;;;;;;;6.25;5.65;;;;;;;;;;5048168;28;20048;-78
2022/04/24 05:48:03;;;;;;;8.55;7.22;;;;;;;;;;5066533;28;20051;-78
2022/04/24 05:50:31;;;;;;;6.88;6.28;;;;;;;;;;5048594;28;20044;-77
2022/04/24 05:52:58;;;;;;;6.65;6.03;;;;;;;;;;5023260;28;20068;-77
2022/04/24 05:55:25;;;;;;;7.43;6.30;;;;;;;;;;5049768;28;20075;-78
2022/04/24 05:57:53;;;;;;;7.15;6.45;;;;;;;;;;5068410;28;20160;-78
2022/04/24 06:00:21;;;;;;;6.72;6.15;;;;;;;;;;5067833;28;20072;-77
2022/04/24 06:02:51;;;;;;;6.00;5.53;;;;;;;;;;5064592;28;20137;-78
2022/04/24 06:05:19;;;;;;;6.70;5.93;;;;;;;;;;5049973;28;20041;-78
2022/04/24 06:07:46;;;;;;;6.80;6.20;;;;;;;;;;5070312;28;20489;-78
2022/04/24 06:10:14;;;;;;;6.65;6.05;;;;;;;;;;5077219;28;20146;-78
2022/04/24 06:12:47;;;;;;;7.20;6.35;;;;;;;;;;5081880;28;20075;-77
2022/04/24 06:15:16;;;;;;;7.15;6.45;;;;;;;;;;5082458;28;20155;-78
2022/04/24 06:17:46;;;;;;;7.53;6.93;;;;;;;;;;5059576;28;20048;-78
2022/04/24 06:20:14;;;;;;;6.63;6.03;;;;;;;;;;5063579;28;20052;-77
2022/04/24 06:22:42;;;;;;;7.55;6.50;;;;;;;;;;5068496;28;20562;-78
2022/04/24 06:25:10;;;;;;;7.60;6.45;;;;;;;;;;5068041;28;20053;-77
2022/04/24 06:27:37;;;;;;;7.57;6.88;;;;;;;;;;5064903;28;20048;-78
2022/04/24 06:30:05;;;;;;;6.97;6.28;;;;;;;;;;5066735;28;20038;-78
2022/04/24 06:32:35;;;;;;;6.65;6.13;;;;;;;;;;5065575;28;20040;-78
2022/04/24 06:35:03;;;;;;;7.28;6.68;;;;;;;;;;5058342;28;20049;-78
2022/04/24 06:37:31;;;;;;;7.65;6.95;;;;;;;;;;5042919;28;20048;-78
2022/04/24 06:39:58;;;;;;;7.20;6.60;;;;;;;;;;5063178;28;20083;-77
2022/04/24 06:42:26;;;;;;;7.13;6.53;;;;;;;;;;5046471;28;20159;-78
2022/04/24 06:44:56;;;;;;;7.45;6.75;;;;;;;;;;5057191;28;20032;-78
2022/04/24 06:47:28;;;;;;;6.50;6.00;;;;;;;;;;5042906;28;20519;-78
2022/04/24 06:50:03;;;;;;;6.85;6.25;;;;;;;;;;5049116;28;20051;-78
2022/04/24 06:52:34;;;;;;;6.68;6.18;;;;;;;;;;5063494;28;20033;-78
2022/04/24 06:55:02;;;;;;;10.73;7.93;;;;;;;;;;5045048;28;20065;-78
2022/04/24 06:57:32;;;;;;;7.97;7.25;;;;;;;;;;5049205;28;20051;-79
2022/04/24 07:00:05;;;;;;;7.60;6.90;;;;;;;;;;5056947;28;20121;-78
2022/04/24 07:02:36;;;;;;;8.45;7.65;;;;;;;;;;5045430;28;20059;-78
2022/04/24 07:08:07;;;;;;;8.20;7.45;;;;;;;;;;5067256;28;20105;-78
2022/04/24 07:10:36;;;;;;;7.53;6.82;;;;;;;;;;5032145;28;20048;-79
2022/04/24 07:13:12;;;;;;;8.00;7.20;;;;;;;;;;5053756;28;20092;-78
2022/04/24 07:15:52;;;;;;;9.77;8.20;;;;;;;;;;5052174;28;20040;-78
2022/04/24 07:18:20;;;;;;;9.98;8.00;;;;;;;;;;5048205;28;20080;-77
2022/04/24 07:20:48;;;;;;;12.82;8.30;;;;;;;;;;5047622;28;20049;-77
2022/04/24 07:23:16;;;;;;;9.48;8.50;;;;;;;;;;5066397;28;20048;-77
2022/04/24 07:25:44;;;;;;;8.85;8.05;;;;;;;;;;5047965;28;20435;-78
2022/04/24 07:28:13;;;;;;;8.80;8.10;;;;;;;;;;5050567;28;20489;-77
2022/04/24 07:30:40;;;;;;;9.25;8.32;;;;;;;;;;5030536;28;20532;-77
2022/04/24 07:33:11;;;;;;;9.07;7.47;;;;;;;;;;5061954;28;20055;-77
2022/04/24 07:35:39;;;;;;;9.07;8.18;;;;;;;;;;5059251;28;20048;-77
2022/04/24 07:38:06;;;;;;;7.95;7.25;;;;;;;;;;5063036;28;20045;-77
2022/04/24 07:40:39;;;;;;;7.95;7.25;;;;;;;;;;5063612;28;20041;-77
2022/04/24 07:43:10;;;;;;;11.25;9.32;;;;;;;;;;5065498;28;20463;-77
2022/04/24 07:45:38;;;;;;;9.30;8.40;;;;;;;;;;5068100;28;20033;-78
2022/04/24 07:48:06;;;;;;;9.98;9.07;;;;;;;;;;5061435;28;20040;-77
2022/04/24 07:50:35;;;;;;;8.93;7.40;;;;;;;;;;5063307;28;20036;-77
2022/04/24 07:53:04;;;;;;;9.40;8.60;;;;;;;;;;5066459;28;20044;-77
2022/04/24 07:55:31;;;;;;;9.45;8.55;;;;;;;;;;5048821;28;20121;-77
2022/04/24 07:57:59;;;;;;;9.73;8.80;;;;;;;;;;5066937;28;20121;-77
2022/04/24 08:00:30;;;;;;;9.95;9.00;;;;;;;;;;5065366;28;20049;-77
2022/04/24 08:03:01;;;;;;;8.52;7.82;;;;;;;;;;5091241;22;20032;-89
2022/04/24 08:05:45;;;;;;;9.13;8.15;;;;;;;;;;5071288;28;20044;-90
2022/04/24 08:08:14;;;;;;;8.85;8.05;;;;;;;;;;5083611;28;21030;-89
2022/04/24 08:10:44;;;;;;;9.02;8.23;;;;;;;;;;5070232;28;20682;-89
2022/04/24 08:13:17;;;;;;;8.80;8.00;;;;;;;;;;5071615;28;20040;-89
2022/04/24 08:15:50;;;;;;;8.38;7.57;;;;;;;;;;5053568;28;20744;-88
2022/04/24 08:18:54;;;;;;;8.82;8.02;;;;;;;;;;5086942;28;20108;-90
2022/04/24 08:22:04;;;;;;;8.57;7.88;;;;;;;;;;5075234;28;20055;-88
2022/04/24 08:24:53;;;;;;;8.45;7.65;;;;;;;;;;5075456;28;20048;-89
2022/04/24 08:27:23;;;;;;;;;;;;;;;;;;5074916;28;20432;-89
2022/04/24 08:30:05;;;;;;;9.32;8.43;;;;;;;;;;5092191;28;20377;-88
2022/04/24 08:32:49;;;;;;;;;;;;;;;;;;5060600;28;20075;-89
2022/04/24 08:35:48;;;;;;;9.13;8.23;;;;;;;;;;5075937;28;19928;-89
2022/04/24 08:38:45;;;;;;;9.32;8.50;;;;;;;;;;5079192;28;20489;-89
2022/04/24 08:41:15;;;;;;;8.73;7.93;;;;;;;;;;5097751;28;20112;-89
2022/04/24 08:43:56;;;;;;;9.25;8.45;;;;;;;;;;5097391;28;20039;-88
2022/04/24 08:46:34;;;;;;;11.35;8.60;;;;;;;;;;5100049;28;20028;-86
2022/04/24 08:49:06;;;;;;;9.00;8.15;;;;;;;;;;5089602;28;20124;-88
2022/04/24 08:51:44;;;;;;;9.52;8.73;;;;;;;;;;5082764;28;20031;-87
2022/04/24 08:54:26;;;;;;;9.00;8.25;;;;;;;;;;5086599;28;20075;-89
2022/04/24 08:57:17;;;;;;;9.45;8.65;;;;;;;;;;5096617;28;20052;-88
2022/04/24 08:59:51;;;;;;;10.38;9.38;;;;;;;;;;5092760;28;20036;-88
2022/04/24 09:02:53;;;;;;;9.18;8.30;;;;;;;;;;5095640;28;20044;-88
2022/04/24 09:05:45;;;;;;;10.07;7.25;;;;;;;;;;5059929;28;20533;-88
2022/04/24 09:08:44;;;;;;;8.57;7.75;;;;;;;;;;5091580;28;20103;-87
2022/04/24 09:11:27;;;;;;;10.10;7.63;;;;;;;;;;5090838;28;20185;-89
2022/04/24 09:14:24;;;;;;;8.25;7.60;;;;;;;;;;5088623;28;20041;-88
2022/04/24 09:17:17;;;;;;;8.10;7.40;;;;;;;;;;5091742;28;20044;-89
2022/04/24 09:23:22;;;;;;;14.55;8.07;;;;;;;;;;5078338;28;20074;-88
2022/04/24 09:30:00;;;;;;;7.97;7.18;;;;;;;;;;5113161;28;20070;-88
2022/04/24 09:37:08;;;;;;;8.40;7.32;;;;;;;;;;5039537;28;20055;-87
2022/04/24 09:44:35;;;;;;;8.45;7.60;;;;;;;;;;5029821;28;20044;-88
2022/04/24 09:47:50;;;;;;;7.07;6.38;;;;;;;;;;5021884;28;20042;-87
2022/04/24 09:54:38;;;;;;;6.90;6.30;;;;;;;;;;5026406;28;20140;-87
2022/04/24 09:57:48;;;;;;;8.03;5.80;;;;;;;;;;5037799;28;20597;-90
2022/04/24 10:00:15;;;;;;;6.95;6.38;;;;;;;;;;5055959;28;20717;-87
2022/04/24 10:03:29;;;;;;;6.80;6.20;;;;;;;;;;5072347;28;20071;-88
2022/04/24 10:06:04;;;;;;;6.63;5.50;;;;;;;;;;5092096;28;20044;-87
2022/04/24 10:11:44;;;;;;;8.73;4.60;;;;;;;;;;5089470;22;20067;-83
2022/04/24 10:14:17;;;;;;;4.85;4.50;;;;;;;;;;5099078;28;20038;-80
2022/04/24 10:17:00;;;;;;;8.77;4.65;;;;;;;;;;5071915;28;20129;-82
2022/04/24 10:19:46;;;;;;;5.03;4.57;;;;;;;;;;5073141;28;20076;-82
2022/04/24 10:22:27;;;;;;;5.18;4.70;;;;;;;;;;5035465;28;20143;-84
2022/04/24 10:25:01;;;;;;;5.28;4.80;;;;;;;;;;5049005;28;20049;-77
2022/04/24 10:27:36;;;;;;;4.90;4.60;;;;;;;;;;5034875;28;20057;-77
2022/04/24 10:30:05;;;;;;;5.22;4.45;;;;;;;;;;5032803;28;20041;-79
2022/04/24 10:32:32;;;;;;;5.05;4.45;;;;;;;;;;5038477;28;20048;-78
2022/04/24 10:35:00;;;;;;;6.30;4.63;;;;;;;;;;5035673;28;20029;-76
2022/04/24 10:37:33;;;;;;;4.75;4.25;;;;;;;;;;5036328;28;20049;-77
2022/04/24 10:40:02;;;;;;;4.65;4.25;;;;;;;;;;5033293;28;20037;-77
2022/04/24 10:42:34;;;;;;;5.50;5.10;;;;;;;;;;5034141;28;20068;-77
2022/04/24 10:45:08;;;;;;;5.72;5.20;;;;;;;;;;5028832;28;20386;-76
2022/04/24 10:47:45;;;;;;;4.65;4.25;;;;;;;;;;5031515;28;20418;-77
2022/04/24 10:50:13;;;;;;;6.57;4.50;;;;;;;;;;5046177;28;20120;-79
2022/04/24 10:52:43;;;;;;;5.43;4.95;;;;;;;;;;5028636;28;20432;-78
2022/04/24 10:55:13;;;;;;;4.95;4.63;;;;;;;;;;5030165;28;20038;-78
2022/04/24 10:57:42;;;;;;;3.95;3.75;;;;;;;;;;5032743;28;20037;-77
2022/04/24 11:00:19;;;;;;;6.25;4.40;;;;;;;;;;5034020;28;20088;-77
2022/04/24 11:02:47;;;;;;;4.68;4.28;;;;;;;;;;5031919;28;20084;-77
2022/04/24 11:05:19;;;;;;;4.50;4.18;;;;;;;;;;5030056;28;20038;-77
2022/04/24 11:07:47;;;;;;;4.40;4.00;;;;;;;;;;5021394;28;20056;-78
2022/04/24 11:10:20;;;;;;;4.55;4.25;;;;;;;;;;5027262;28;20187;-78
2022/04/24 11:12:48;;;;;;;4.43;4.03;;;;;;;;;;5028245;28;20033;-77
2022/04/24 11:15:16;;;;;;;4.95;4.53;;;;;;;;;;5026432;28;20129;-77
2022/04/24 11:17:43;;;;;;;4.18;3.83;;;;;;;;;;5011033;28;20069;-78
2022/04/24 11:20:15;;;;;;;7.80;5.60;;;;;;;;;;5030517;28;20405;-78
2022/04/24 11:22:42;;;;;;;;;;;;;;;;;;5025524;28;20041;-78
2022/04/24 11:25:12;;;;;;;4.00;3.80;;;;;;;;;;5032242;28;19955;-78
2022/04/24 11:27:40;;;;;;;4.43;4.13;;;;;;;;;;5029950;28;20033;-78
2022/04/24 11:30:28;;;;;;;4.18;3.80;;;;;;;;;;5030809;28;20029;-77
2022/04/24 11:32:59;;;;;;;5.25;4.85;;;;;;;;;;5019416;28;20038;-77
2022/04/24 11:35:28;;;;;;;3.83;3.53;;;;;;;;;;5028170;28;20060;-78
2022/04/24 11:37:55;;;;;;;5.47;3.97;;;;;;;;;;5027280;28;20045;-78
2022/04/24 11:40:23;;;;;;;3.53;3.33;;;;;;;;;;5028078;28;20560;-76
2022/04/24 11:43:11;;;;;;;3.95;3.53;;;;;;;;;;5025222;28;20065;-76
2022/04/24 11:51:15;;;;;;;3.85;3.45;;;;;;;;;;5010017;28;20095;-77
2022/04/24 11:54:03;;;;;;;3.70;3.50;;;;;;;;;;5029179;28;20033;-77
2022/04/24 11:56:32;;;;;;;6.05;3.95;;;;;;;;;;5027338;28;20465;-77
2022/04/24 11:59:14;;;;;;;4.20;3.30;;;;;;;;;;5031709;28;20041;-78
2022/04/24 12:01:43;;;;;;;3.80;3.15;;;;;;;;;;5039172;28;20053;-77
2022/04/24 12:04:18;;;;;;;3.20;3.00;;;;;;;;;;5012196;28;20076;-77
2022/04/24 12:06:46;;;;;;;4.38;3.10;;;;;;;;;;5014801;28;20041;-78
2022/04/24 12:09:14;;;;;;;3.25;2.97;;;;;;;;;;5025704;28;20052;-78
2022/04/24 12:11:44;;;;;;;2.47;2.38;;;;;;;;;;5011578;28;20576;-78
2022/04/24 12:14:12;;;;;;;2.83;2.63;;;;;;;;;;5042296;28;20065;-78
2022/04/24 12:16:40;;;;;;;2.97;2.78;;;;;;;;;;5026132;28;20606;-78
2022/04/24 12:19:10;;;;;;;3.20;3.00;;;;;;;;;;5025662;28;20045;-77
2022/04/24 12:21:45;;;;;;;3.22;3.03;;;;;;;;;;5024598;28;20052;-78
2022/04/24 12:24:13;;;;;;;2.88;2.70;;;;;;;;;;5026406;28;20052;-78
2022/04/24 12:26:47;;;;;;;4.05;3.13;;;;;;;;;;5012232;28;20117;-77
2022/04/24 12:29:18;;;;;;;3.60;3.30;;;;;;;;;;5014158;28;20073;-78
2022/04/24 12:31:46;;;;;;;3.30;3.10;;;;;;;;;;5012943;28;20056;-76
2022/04/24 12:34:14;;;;;;;3.67;3.05;;;;;;;;;;5004198;28;20084;-77
2022/04/24 12:36:52;;;;;;;3.70;3.30;;;;;;;;;;5018479;28;20053;-77
2022/04/24 12:39:24;;;;;;;2.58;2.42;;;;;;;;;;5025194;28;20045;-78
2022/04/24 12:41:51;;;;;;;3.00;2.80;;;;;;;;;;5025280;28;20099;-77
2022/04/24 12:44:19;;;;;;;2.92;2.72;;;;;;;;;;5006305;28;20053;-77
2022/04/24 12:46:56;;;;;;;3.30;2.65;;;;;;;;;;5024877;28;20501;-78
2022/04/24 12:49:27;;;;;;;2.25;2.15;;;;;;;;;;5029665;28;20265;-77
2022/04/24 12:51:55;;;;;;;2.55;2.22;;;;;;;;;;5004885;28;20045;-77
2022/04/24 12:54:22;;;;;;;1.95;1.85;;;;;;;;;;5018350;28;20231;-78
2022/04/24 12:56:51;;;;;;;2.00;1.90;;;;;;;;;;5012554;28;20046;-77
2022/04/24 12:59:18;;;;;;;2.80;1.60;;;;;;;;;;5006843;28;20050;-78
2022/04/24 13:01:46;;;;;;;2.22;1.90;;;;;;;;;;5005576;28;20056;-78
2022/04/24 13:04:20;;;;;;;3.42;1.88;;;;;;;;;;5005559;28;20050;-77
2022/04/24 13:06:49;;;;;;;1.73;1.73;;;;;;;;;;5019420;28;20061;-78
2022/04/24 13:09:23;;;;;;;2.88;2.10;;;;;;;;;;5024411;28;20038;-78
2022/04/24 13:11:53;;;;;;;2.45;1.98;;;;;;;;;;5007744;28;20049;-76
2022/04/24 13:14:20;;;;;;;1.42;1.42;;;;;;;;;;4999475;28;20050;-78
2022/04/24 13:19:37;;;;;;;1.65;1.55;;;;;;;;;;5012011;28;20410;-77
2022/04/24 13:22:05;;;;;;;3.00;2.08;;;;;;;;;;5012461;28;20508;-76
2022/04/24 13:24:33;;;;;;;1.60;1.50;;;;;;;;;;5014752;28;20266;-76
2022/04/24 13:27:00;;;;;;;11.40;2.70;;;;;;;;;;5018690;28;20042;-77
2022/04/24 13:29:29;;;;;;;2.38;1.90;;;;;;;;;;5018489;28;20152;-77
2022/04/24 13:31:57;;;;;;;3.08;2.13;;;;;;;;;;5017621;28;20054;-77
2022/04/24 13:34:25;;;;;;;3.53;2.55;;;;;;;;;;5017197;28;20421;-76
2022/04/24 13:39:41;;;;;;;4.97;3.75;;;;;;;;;;5014657;28;20067;-76
2022/04/24 13:42:13;;;;;;;3.47;3.20;;;;;;;;;;5012639;28;20332;-78
2022/04/24 13:44:40;;;;;;;2.80;2.60;;;;;;;;;;5014502;28;20073;-78
2022/04/24 13:47:08;;;;;;;3.40;3.20;;;;;;;;;;5016549;28;20069;-77
2022/04/24 13:49:36;;;;;;;3.33;3.10;;;;;;;;;;5017310;28;20041;-77
2022/04/24 13:52:03;;;;;;;3.45;3.25;;;;;;;;;;5013740;28;20124;-77
2022/04/24 13:54:31;;;;;;;4.68;3.30;;;;;;;;;;5015903;28;20101;-76
2022/04/24 13:56:59;;;;;;;3.30;2.55;;;;;;;;;;5013847;28;20091;-77
2022/04/24 13:59:27;;;;;;;2.88;2.60;;;;;;;;;;5025429;28;20053;-76
2022/04/24 14:01:55;;;;;;;3.17;2.90;;;;;;;;;;5074509;22;20719;-79
2022/04/24 14:04:23;;;;;;;2.60;2.40;;;;;;;;;;5081365;28;20044;-80
2022/04/24 14:06:51;;;;;;;3.30;3.00;;;;;;;;;;5082171;28;20040;-80
2022/04/24 14:09:18;;;;;;;2.72;2.53;;;;;;;;;;5028739;28;20521;-79
2022/04/24 14:11:47;;;;;;;3.00;2.80;;;;;;;;;;5044506;28;20044;-79
2022/04/24 14:14:14;;;;;;;2.90;2.70;;;;;;;;;;5063486;28;20044;-79
2022/04/24 14:16:42;;;;;;;4.45;3.00;;;;;;;;;;5027552;28;20056;-79
2022/04/24 14:19:10;;;;;;;3.13;2.85;;;;;;;;;;5060699;28;20109;-78
2022/04/24 14:21:37;;;;;;;3.22;2.92;;;;;;;;;;5077668;28;20047;-79
2022/04/24 14:24:05;;;;;;;2.75;2.55;;;;;;;;;;5056670;28;20441;-78
2022/04/24 14:26:34;;;;;;;3.38;2.78;;;;;;;;;;5042716;28;20127;-78
2022/04/24 14:29:04;;;;;;;3.08;2.78;;;;;;;;;;5061298;28;20047;-79
2022/04/24 14:31:32;;;;;;;3.20;2.80;;;;;;;;;;5059131;28;20036;-79
2022/04/24 14:34:00;;;;;;;2.92;2.40;;;;;;;;;;5045500;28;20467;-79
2022/04/24 14:36:29;;;;;;;2.58;2.38;;;;;;;;;;5040176;28;20048;-79
2022/04/24 14:38:57;;;;;;;2.58;2.38;;;;;;;;;;5075892;28;20040;-79
2022/04/24 14:41:25;;;;;;;3.15;2.83;;;;;;;;;;5058947;28;20048;-79
2022/04/24 14:43:54;;;;;;;3.78;3.45;;;;;;;;;;5073611;28;20056;-78
2022/04/24 14:57:27;;;;;;;2.42;2.10;;;;;;;;;;5058157;28;20040;-79
2022/04/24 14:59:56;;;;;;;2.05;1.90;;;;;;;;;;5058873;28;20048;-79
2022/04/24 15:02:32;;;;;;;3.10;1.98;;;;;;;;;;5041932;28;20046;-81
2022/04/24 15:05:09;;;;;;;2.00;1.90;;;;;;;;;;5044083;28;20106;-79
2022/04/24 15:07:38;;;;;;;2.15;2.05;;;;;;;;;;5057933;28;20039;-79
2022/04/24 15:10:08;;;;;;;2.53;2.33;;;;;;;;;;5056666;28;20044;-79
2022/04/24 15:12:36;;;;;;;3.47;2.10;;;;;;;;;;5076277;28;20278;-79
2022/04/24 15:15:04;;;;;;;2.42;2.25;;;;;;;;;;5040389;28;20064;-79
2022/04/24 15:17:31;;;;;;;3.72;2.15;;;;;;;;;;5041834;28;20056;-79
2022/04/24 15:20:01;;;;;;;2.20;2.10;;;;;;;;;;5056939;28;20155;-78
2022/04/24 15:22:29;;;;;;;2.10;1.95;;;;;;;;;;5053328;28;20066;-78
2022/04/24 15:24:57;;;;;;;2.13;2.03;;;;;;;;;;5055051;28;20059;-79
2022/04/24 15:27:41;;;;;;;2.25;2.05;;;;;;;;;;5058022;28;20524;-78
2022/04/24 15:30:09;;;;;;;4.18;2.15;;;;;;;;;;5028893;28;20032;-79
2022/04/24 15:32:37;;;;;;;2.20;2.00;;;;;;;;;;5053687;28;20032;-79
2022/04/24 15:35:09;;;;;;;2.70;2.10;;;;;;;;;;5038002;28;20055;-79
2022/04/24 15:37:44;;;;;;;2.47;2.15;;;;;;;;;;5055381;28;20151;-79
2022/04/24 15:40:11;;;;;;;2.10;2.00;;;;;;;;;;5056269;28;20291;-78
2022/04/24 15:42:39;;;;;;;2.47;2.15;;;;;;;;;;5037959;28;20595;-78
2022/04/24 15:45:10;;;;;;;4.15;2.30;;;;;;;;;;5072561;28;20546;-78
2022/04/24 15:47:41;;;;;;;1.80;1.70;;;;;;;;;;5053924;28;20043;-78
2022/04/24 15:50:09;;;;;;;2.20;2.05;;;;;;;;;;5073422;28;20071;-78
2022/04/24 15:52:36;;;;;;;1.70;1.60;;;;;;;;;;5053730;28;20143;-78